Mark Center, OH

4:03 AM EDT on October 20, 2014 (GMT -0400)
Fort Wayne International | Change Station
CLOSE
Current Station
Airport
Location: Fort Wayne,
Elevation: 827 ft
Nearby Weather Stations

Elev 827 ft 40.98 °N, 85.19 °W | Updated 9 minutes ago

Mostly Cloudy
Mostly Cloudy
45 °F
Feels Like 41 °F
N
7
Wind Variable Wind from SSW

Today
High -- | Low -- °F
--% Chance of Precip.
Yesterday
High -- | Low -- °F
Precip. -- in
7:55 AM 6:50 PM
Waning Crescent, 12% visible
Pressure 29.96 in
Visibility 9.0 miles
Clouds Mostly Cloudy 11000 ft
Windchill 41 °F
Dew Point 41 °F
Humidity 86%
Rainfall 0.00 in
Snow Depth Not available.
UV 0 out of 12
Pollen .30 out of 12
Air Quality Not available.
Flu Activity Sporadic
METAR KFWA 200754Z 20006KT 9SM BKN110 07/05 A2996 RMK AO2 SLP146 T00720050

More Conditions Fewer Conditions

Pressure 29.96 in
Visibility 9.0 miles
Clouds Mostly Cloudy 11000 ft
Windchill 41 °F
Dew Point 41 °F
Humidity 86%
Rainfall 0.00 in
Snow Depth Not available.
UV 0 out of 12
Pollen .30 out of 12
Air Quality Not available.
Flu Activity Sporadic
METAR KFWA 200754Z 20006KT 9SM BKN110 07/05 A2996 RMK AO2 SLP146 T00720050

More Conditions Fewer Conditions

10-Day Weather Forecast

Almanac

Astronomy

Oct. 20, 2014 Rise Set
Actual Time 7:55 AM EDT 6:50 PM EDT
Civil Twilight 7:27 AM EDT 7:18 PM EDT
Nautical Twilight 6:55 AM EDT 7:50 PM EDT
Astronomical Twilight 6:23 AM EDT 8:22 PM EDT
Moon 4:41 AM EDT 5:14 PM EDT
Length of Visible Light 11h 50m
Length of Day
10h 54m
Waning Crescent, 12% of the Moon is Illuminated
Today
Waning Crescent
Oct 23
New
Oct 30
First Quarter
Nov 6
Full
Nov 14
Last Quarter

Today's Extremes

State Highs State Lows

Community

WunderPhotos

Upload Photos

1,763,316 photos uploaded!

Nearby

Snow Depth

Station Depth Elevation
No new snow has been reported.

Earthquake Activity

City Distance Mag. Time & Date
No recent earthquake activity has been reported nearby.
Minimum magnitude displayed is 2.5.

Coastal Water Temperatures

Place Temperature
No Stations Reporting

Nearby Weather Stations